Greensboro Bend, Vermont
Current Conditions -  °F | °C
As of 11:15 PM on Friday 19 Dec 2014 (Local Time) from KCDA Reporting Station
Clear Clear  
Wind Chill:   Ceiling: Unl
Heat Index: 17°   Visibility: 10mi
Dew Point: 13°   Wind: 5mph
Humidity: 84%   Direction: 320°NW
Pressure: 30.16"   Gusts: NA
Location:  44.55°N, 72.27°W
Report Text: KCDA 200415Z AUTO 32004KT 10SM CLR M09/M11 A3016 RMK AO2 T10861108
Loading
Personal Weather Stations






























Interactive Weather Map New forecast layout! Learn more

10-Day Weather Forecast

Advertisements
Track Severe Weather on mobile